createdAt,value
2023-03-15T00:01:26.860Z,0.68
2023-03-15T00:11:27.230Z,1.17
2023-03-15T00:21:29.346Z,1.75
2023-03-15T00:31:29.372Z,0.10
2023-03-15T00:41:29.233Z,1.26
2023-03-15T00:51:30.009Z,0.97
2023-03-15T01:01:30.252Z,2.52
2023-03-15T01:11:30.512Z,1.35
2023-03-15T01:21:30.328Z,2.51
2023-03-15T01:31:30.478Z,1.16
2023-03-15T01:41:30.713Z,0.96
2023-03-15T01:51:34.424Z,0.48
2023-03-15T02:01:34.630Z,2.59
2023-03-15T02:11:34.484Z,3.55
2023-03-15T02:21:34.423Z,1.63
2023-03-15T02:31:36.472Z,1.81
2023-03-15T02:41:36.485Z,1.62
2023-03-15T02:51:36.635Z,0.57
2023-03-15T03:01:37.016Z,1.33
2023-03-15T03:11:37.502Z,0.38
2023-03-15T03:21:37.552Z,1.14
2023-03-15T03:31:38.100Z,0.57
2023-03-15T03:41:39.141Z,0.38
2023-03-15T03:51:39.636Z,1.04
2023-03-15T04:01:39.779Z,0.66
2023-03-15T04:11:41.411Z,0.76
2023-03-15T04:21:48.042Z,1.32
2023-03-15T04:31:50.423Z,3.02
2023-03-15T04:41:55.301Z,2.74
2023-03-15T04:52:06.345Z,2.92
2023-03-15T05:02:17.661Z,2.36
2023-03-15T05:12:19.485Z,3.67
2023-03-15T05:22:27.492Z,2.73
2023-03-15T05:32:47.917Z,1.13
2023-03-15T05:42:50.533Z,2.73
2023-03-15T05:52:55.387Z,3.95
2023-03-15T06:02:57.514Z,3.01
2023-03-15T06:12:57.853Z,2.35
2023-03-15T06:22:59.464Z,2.63
2023-03-15T06:32:59.886Z,5.17
2023-03-15T06:43:03.208Z,3.86
2023-03-15T06:53:03.895Z,3.30
2023-03-15T07:03:03.806Z,5.19
2023-03-15T07:13:05.193Z,2.46
2023-03-15T07:23:05.645Z,5.19
2023-03-15T07:33:05.839Z,5.29
2023-03-15T07:43:06.062Z,3.50
2023-03-15T07:53:06.721Z,3.60
2023-03-15T08:03:06.864Z,5.05
2023-03-15T08:13:06.812Z,4.31
2023-03-15T08:23:06.997Z,4.04
2023-03-15T08:33:07.284Z,3.66
2023-03-15T08:43:07.831Z,1.91
2023-03-15T08:53:08.058Z,4.93
2023-03-15T09:03:08.366Z,3.87
2023-03-15T09:13:08.875Z,1.36
2023-03-15T09:23:08.897Z,4.76
2023-03-15T09:33:08.885Z,5.01
2023-03-15T09:43:09.702Z,2.55
2023-03-15T09:53:10.248Z,1.37
2023-03-15T10:03:11.092Z,1.96
2023-03-15T10:13:12.020Z,1.48
2023-03-15T10:23:12.307Z,2.97
2023-03-15T10:33:13.020Z,2.37
2023-03-15T10:43:13.466Z,1.29
2023-03-15T10:53:13.936Z,1.49
2023-03-15T11:03:14.010Z,1.09
2023-03-15T11:13:14.141Z,1.39
2023-03-15T11:23:14.457Z,0.79
2023-03-15T11:33:15.061Z,0.99
2023-03-15T11:43:15.045Z,1.39
2023-03-15T11:53:14.988Z,0.70
2023-03-15T12:03:15.139Z,0.20
2023-03-15T12:13:15.098Z,1.00
2023-03-15T12:23:15.113Z,1.99
2023-03-15T12:33:15.074Z,0.60
2023-03-15T12:43:15.080Z,0.70
2023-03-15T12:53:15.077Z,0.60
2023-03-15T13:03:15.995Z,0.30
2023-03-15T13:13:16.263Z,0.30
2023-03-15T13:23:16.224Z,0.30
2023-03-15T13:33:16.198Z,0.80
2023-03-15T13:43:16.528Z,0.40
2023-03-15T13:53:17.147Z,1.40
2023-03-15T14:03:17.207Z,0.70
2023-03-15T14:13:17.502Z,0.70
2023-03-15T14:23:17.249Z,0.80
2023-03-15T14:33:17.195Z,1.40
2023-03-15T14:43:17.316Z,1.20
2023-03-15T14:53:19.346Z,1.30
2023-03-15T15:03:19.250Z,0.30
2023-03-15T15:13:19.582Z,1.60
2023-03-15T15:23:19.307Z,0.40
2023-03-15T15:33:20.159Z,0.10
2023-03-15T15:43:20.815Z,0.20
2023-03-15T15:53:21.358Z,0.40
2023-03-15T16:03:21.367Z,0.40
2023-03-15T16:13:21.474Z,0.60
2023-03-15T16:23:21.541Z,0.40
2023-03-15T16:33:21.531Z,0.40
2023-03-15T16:43:21.392Z,3.69
2023-03-15T16:53:23.373Z,0.20
2023-03-15T17:03:23.447Z,1.00
2023-03-15T17:13:23.556Z,0.30
2023-03-15T17:23:24.095Z,1.00
2023-03-15T17:33:25.554Z,0.10
2023-03-15T17:43:26.307Z,0.80
2023-03-15T17:53:26.636Z,1.30
2023-03-15T18:03:26.529Z,0.30
2023-03-15T18:13:26.667Z,1.20
2023-03-15T18:23:27.746Z,1.69
2023-03-15T18:33:27.767Z,1.39
2023-03-15T18:43:27.526Z,0.80
2023-03-15T18:53:27.517Z,0.70
2023-03-15T19:03:38.730Z,1.79
2023-03-15T19:13:38.630Z,0.80
2023-03-15T19:23:38.978Z,0.70
2023-03-15T19:33:39.605Z,0.50
2023-03-15T19:43:41.543Z,1.59
2023-03-15T19:53:41.557Z,0.89
2023-03-15T20:03:41.813Z,1.79
2023-03-15T20:13:41.740Z,1.49
2023-03-15T20:23:41.672Z,1.09
2023-03-15T20:33:41.727Z,1.49
2023-03-15T20:43:41.708Z,1.39
2023-03-15T20:53:41.664Z,1.09
2023-03-15T21:03:42.054Z,1.59
2023-03-15T21:13:41.714Z,2.08
2023-03-15T21:23:41.670Z,0.59
2023-03-15T21:33:41.756Z,1.19
2023-03-15T21:43:41.728Z,0.89
2023-03-15T21:53:41.781Z,1.19
2023-03-15T22:03:43.633Z,2.28
2023-03-15T22:13:43.798Z,0.99
2023-03-15T22:23:46.781Z,0.79
2023-03-15T22:33:46.766Z,1.19
2023-03-15T22:43:47.077Z,1.68
2023-03-15T22:53:46.832Z,1.88
2023-03-15T23:03:46.817Z,0.89
2023-03-15T23:13:48.398Z,1.58
2023-03-15T23:23:48.887Z,1.58
2023-03-15T23:33:48.875Z,0.89
2023-03-15T23:43:49.002Z,1.18
2023-03-15T23:53:48.896Z,1.97
